createdAt,value
2019-02-18T00:02:06.447Z,5.48
2019-02-18T00:05:09.736Z,5.36
2019-02-18T00:08:12.957Z,5.30
2019-02-18T00:11:16.120Z,5.19
2019-02-18T00:14:19.327Z,5.11
2019-02-18T00:17:22.516Z,5.09
2019-02-18T00:20:25.701Z,5.09
2019-02-18T00:23:28.884Z,5.05
2019-02-18T00:26:32.086Z,5.07
2019-02-18T00:29:35.403Z,5.07
2019-02-18T00:32:38.579Z,4.99
2019-02-18T00:35:41.792Z,4.97
2019-02-18T00:38:45.043Z,4.99
2019-02-18T00:41:49.342Z,4.97
2019-02-18T00:44:51.251Z,4.98
2019-02-18T00:47:54.448Z,4.96
2019-02-18T00:50:57.659Z,4.95
2019-02-18T00:54:00.831Z,5.02
2019-02-18T00:57:03.959Z,4.85
2019-02-18T01:00:07.854Z,4.84
2019-02-18T01:03:11.124Z,4.73
2019-02-18T01:06:14.228Z,4.73
2019-02-18T01:09:17.425Z,4.63
2019-02-18T01:12:20.519Z,4.60
2019-02-18T01:15:23.611Z,4.68
2019-02-18T01:18:26.706Z,4.69
2019-02-18T01:21:29.903Z,4.60
2019-02-18T01:24:33.101Z,4.57
2019-02-18T01:27:36.207Z,4.55
2019-02-18T01:30:39.392Z,4.49
2019-02-18T01:33:42.564Z,4.48
2019-02-18T01:36:45.754Z,4.45
2019-02-18T01:39:48.889Z,4.45
2019-02-18T01:42:52.087Z,4.43
2019-02-18T01:45:55.258Z,4.44
2019-02-18T01:48:58.536Z,4.45
2019-02-18T01:52:01.626Z,4.40
2019-02-18T01:55:05.203Z,4.37
2019-02-18T01:58:08.327Z,4.38
2019-02-18T02:01:11.520Z,4.41
2019-02-18T02:04:14.695Z,4.39
2019-02-18T02:07:17.815Z,4.42
2019-02-18T02:10:21.035Z,4.37
2019-02-18T02:13:26.950Z,4.38
2019-02-18T02:16:30.048Z,4.38
2019-02-18T02:19:33.249Z,4.29
2019-02-18T02:22:36.468Z,4.26
2019-02-18T02:25:39.636Z,4.27
2019-02-18T02:28:42.849Z,4.33
2019-02-18T02:31:46.051Z,4.35
2019-02-18T02:34:49.222Z,4.33
2019-02-18T02:37:52.435Z,4.30
2019-02-18T02:40:55.619Z,4.29
2019-02-18T02:43:58.824Z,4.28
2019-02-18T02:47:02.021Z,4.30
2019-02-18T02:50:05.421Z,4.26
2019-02-18T02:53:08.615Z,4.28
2019-02-18T02:56:11.890Z,4.28
2019-02-18T02:59:14.979Z,4.18
2019-02-18T03:02:18.175Z,4.17
2019-02-18T03:05:21.375Z,4.07
2019-02-18T03:08:24.575Z,3.97
2019-02-18T03:11:27.763Z,4.03
2019-02-18T03:14:30.985Z,4.00
2019-02-18T03:17:34.147Z,3.99
2019-02-18T03:20:37.379Z,3.97
2019-02-18T03:23:40.547Z,3.98
2019-02-18T03:26:43.630Z,4.00
2019-02-18T03:30:55.122Z,4.06
2019-02-18T03:34:02.555Z,4.04
2019-02-18T03:37:05.703Z,4.02
2019-02-18T03:40:08.818Z,4.00
2019-02-18T03:43:12.099Z,3.97
2019-02-18T03:46:15.299Z,3.80
2019-02-18T03:49:18.770Z,3.75
2019-02-18T03:52:21.977Z,3.75
2019-02-18T03:55:25.091Z,3.74
2019-02-18T03:58:28.295Z,3.68
2019-02-18T04:01:31.486Z,3.75
2019-02-18T04:04:34.800Z,3.72
2019-02-18T04:07:38.089Z,3.61
2019-02-18T04:10:41.263Z,3.60
2019-02-18T04:13:44.446Z,3.60
2019-02-18T04:16:47.543Z,3.56
2019-02-18T04:19:50.740Z,3.50
2019-02-18T04:22:54.160Z,3.44
2019-02-18T04:25:57.303Z,3.40
2019-02-18T04:29:00.450Z,3.33
2019-02-18T04:32:03.641Z,3.31
2019-02-18T04:35:06.885Z,3.21
2019-02-18T04:38:10.003Z,3.21
2019-02-18T04:41:13.097Z,3.23
2019-02-18T04:44:16.309Z,3.21
2019-02-18T04:47:19.510Z,3.23
2019-02-18T04:50:22.683Z,3.23
2019-02-18T04:53:25.883Z,3.15
2019-02-18T04:56:29.080Z,3.12
2019-02-18T04:59:32.276Z,3.02
2019-02-18T05:02:35.465Z,3.00
2019-02-18T05:05:38.774Z,2.95
2019-02-18T05:08:41.947Z,2.87
2019-02-18T05:11:45.034Z,2.94
2019-02-18T05:14:48.238Z,2.90
2019-02-18T05:17:51.346Z,2.88
2019-02-18T05:20:54.645Z,2.84
2019-02-18T05:23:57.920Z,2.94
2019-02-18T05:27:01.133Z,3.01
2019-02-18T05:30:04.549Z,3.03
2019-02-18T05:33:07.867Z,2.98
2019-02-18T05:36:11.010Z,3.01
2019-02-18T05:39:18.141Z,2.99
2019-02-18T05:42:17.403Z,2.92
2019-02-18T05:45:20.591Z,2.82
2019-02-18T05:48:23.904Z,2.74
2019-02-18T05:51:28.822Z,2.79
2019-02-18T05:54:30.282Z,2.81
2019-02-18T05:57:33.567Z,2.81
2019-02-18T06:00:36.760Z,2.77
2019-02-18T06:03:39.870Z,2.73
2019-02-18T06:06:43.169Z,2.68
2019-02-18T06:09:46.467Z,2.63
2019-02-18T06:12:49.667Z,2.64
2019-02-18T06:15:52.898Z,2.56
2019-02-18T06:18:56.046Z,2.52
2019-02-18T06:21:59.352Z,2.57
2019-02-18T06:25:02.565Z,2.65
2019-02-18T06:28:06.334Z,2.59
2019-02-18T06:31:09.546Z,2.56
2019-02-18T06:34:12.741Z,2.63
2019-02-18T06:37:15.955Z,2.70
2019-02-18T06:40:19.132Z,2.70
2019-02-18T06:43:22.231Z,2.66
2019-02-18T06:46:29.876Z,2.81
2019-02-18T06:49:33.883Z,2.83
2019-02-18T06:52:37.215Z,2.94
2019-02-18T06:55:40.435Z,3.09
2019-02-18T06:59:03.975Z,3.13
2019-02-18T07:02:12.547Z,3.13
2019-02-18T07:05:21.831Z,3.13
2019-02-18T07:08:30.296Z,3.21
2019-02-18T07:11:38.836Z,3.18
2019-02-18T07:14:41.979Z,3.16
2019-02-18T07:17:45.167Z,3.22
2019-02-18T07:20:48.384Z,3.32
2019-02-18T07:23:51.553Z,3.36
2019-02-18T07:26:54.744Z,3.40
2019-02-18T07:29:57.850Z,3.43
2019-02-18T07:33:01.035Z,3.53
2019-02-18T07:36:04.225Z,3.62
2019-02-18T07:39:07.708Z,3.75
2019-02-18T07:42:10.832Z,3.85
2019-02-18T07:45:14.031Z,3.93
2019-02-18T07:48:17.319Z,4.07
2019-02-18T07:51:20.626Z,4.21
2019-02-18T07:54:23.803Z,4.34
2019-02-18T07:57:27.012Z,4.46
2019-02-18T08:00:30.215Z,4.58
2019-02-18T08:03:33.409Z,4.74
2019-02-18T08:06:36.595Z,4.89
2019-02-18T08:09:39.782Z,5.00
2019-02-18T08:12:43.087Z,5.19
2019-02-18T08:15:46.286Z,5.32
2019-02-18T08:18:49.492Z,5.49
2019-02-18T08:21:52.685Z,5.61
2019-02-18T08:24:55.886Z,5.72
2019-02-18T08:27:59.153Z,5.86
2019-02-18T08:31:02.345Z,6.00
2019-02-18T08:34:05.555Z,6.08
2019-02-18T08:37:09.341Z,6.21
2019-02-18T08:40:21.697Z,6.31
2019-02-18T08:43:15.733Z,6.48
2019-02-18T08:46:18.842Z,6.61
2019-02-18T08:49:22.137Z,6.72
2019-02-18T08:52:25.351Z,6.97
2019-02-18T08:55:28.557Z,7.00
2019-02-18T08:58:31.808Z,7.12
2019-02-18T09:01:34.919Z,7.38
2019-02-18T09:04:38.005Z,7.56
2019-02-18T09:07:41.229Z,7.71
2019-02-18T09:10:44.356Z,7.76
2019-02-18T09:13:47.504Z,7.84
2019-02-18T09:16:50.668Z,7.93
2019-02-18T09:19:53.862Z,8.15
2019-02-18T09:23:04.401Z,8.31
2019-02-18T09:26:07.511Z,8.35
2019-02-18T09:29:10.821Z,8.51
2019-02-18T09:32:13.921Z,8.54
2019-02-18T09:35:17.014Z,8.61
2019-02-18T09:38:24.949Z,8.69
2019-02-18T09:41:23.305Z,8.82
2019-02-18T09:44:26.503Z,9.01
2019-02-18T09:47:29.587Z,9.20
2019-02-18T09:50:32.783Z,9.26
2019-02-18T09:53:35.980Z,9.42
2019-02-18T09:56:39.171Z,9.52
2019-02-18T09:59:42.359Z,9.38
2019-02-18T10:02:45.555Z,9.45
2019-02-18T10:05:48.744Z,9.70
2019-02-18T10:08:51.988Z,9.88
2019-02-18T10:11:55.176Z,10.19
2019-02-18T10:14:58.431Z,10.36
2019-02-18T10:18:01.631Z,10.46
2019-02-18T10:21:04.973Z,10.26
2019-02-18T10:24:08.146Z,10.23
2019-02-18T10:27:11.318Z,10.42
2019-02-18T10:30:14.669Z,10.63
2019-02-18T10:33:17.814Z,10.94
2019-02-18T10:36:20.996Z,11.07
2019-02-18T10:39:24.115Z,11.25
2019-02-18T10:42:27.279Z,11.49
2019-02-18T10:45:30.384Z,11.51
2019-02-18T10:48:33.697Z,11.75
2019-02-18T10:51:36.897Z,11.75
2019-02-18T10:54:40.989Z,11.81
2019-02-18T10:57:44.071Z,11.90
2019-02-18T11:00:47.367Z,12.18
2019-02-18T11:03:50.580Z,12.37
2019-02-18T11:06:53.763Z,12.38
2019-02-18T11:09:56.851Z,12.68
2019-02-18T11:13:01.063Z,12.88
2019-02-18T11:16:04.168Z,12.78
2019-02-18T11:19:07.363Z,12.79
2019-02-18T11:22:10.551Z,13.09
2019-02-18T11:25:13.852Z,13.40
2019-02-18T11:28:17.046Z,13.60
2019-02-18T11:31:20.235Z,13.68
2019-02-18T11:34:23.431Z,13.79
2019-02-18T11:37:26.619Z,13.87
2019-02-18T11:40:32.068Z,13.92
2019-02-18T11:43:32.962Z,14.26
2019-02-18T11:46:36.131Z,14.50
2019-02-18T11:49:39.307Z,14.44
2019-02-18T11:52:42.399Z,14.43
2019-02-18T11:55:45.496Z,14.67
2019-02-18T11:58:48.691Z,14.87
2019-02-18T12:01:51.895Z,14.94
2019-02-18T12:04:55.098Z,15.06
2019-02-18T12:07:58.275Z,15.24
2019-02-18T12:11:01.475Z,15.34
2019-02-18T12:14:04.784Z,15.25
2019-02-18T12:17:07.972Z,15.38
2019-02-18T12:20:11.976Z,15.44
2019-02-18T12:23:15.170Z,15.68
2019-02-18T12:26:18.363Z,16.01
2019-02-18T12:29:26.156Z,16.14
2019-02-18T12:32:24.839Z,16.28
2019-02-18T12:35:31.661Z,16.43
2019-02-18T12:38:31.248Z,16.53
2019-02-18T12:41:34.320Z,16.57
2019-02-18T12:44:37.515Z,16.69
2019-02-18T12:47:40.640Z,16.87
2019-02-18T12:50:43.835Z,16.98
2019-02-18T12:53:47.124Z,16.93
2019-02-18T12:56:50.319Z,17.23
2019-02-18T12:59:53.736Z,17.31
2019-02-18T13:02:56.694Z,16.96
2019-02-18T13:05:59.903Z,16.97
2019-02-18T13:09:03.490Z,16.97
2019-02-18T13:12:06.697Z,16.90
2019-02-18T13:15:11.107Z,16.84
2019-02-18T13:18:14.314Z,16.93
2019-02-18T13:21:17.508Z,17.08
2019-02-18T13:24:20.686Z,17.22
2019-02-18T13:27:23.784Z,17.08
2019-02-18T13:30:26.882Z,16.83
2019-02-18T13:33:30.067Z,17.03
2019-02-18T13:36:33.267Z,17.16
2019-02-18T13:39:36.471Z,17.38
2019-02-18T13:42:39.659Z,17.52
2019-02-18T13:45:42.862Z,17.76
2019-02-18T13:48:46.075Z,17.67
2019-02-18T13:51:56.369Z,17.59
2019-02-18T13:54:52.554Z,17.58
2019-02-18T13:57:55.735Z,17.75
2019-02-18T14:00:58.927Z,17.88
2019-02-18T14:04:02.018Z,17.51
2019-02-18T14:07:05.229Z,17.31
2019-02-18T14:10:08.418Z,17.56
2019-02-18T14:13:11.602Z,17.65
2019-02-18T14:16:14.677Z,17.76
2019-02-18T14:19:17.802Z,17.77
2019-02-18T14:22:21.005Z,17.81
2019-02-18T14:25:24.184Z,17.86
2019-02-18T14:28:27.387Z,18.07
2019-02-18T14:31:30.571Z,18.31
2019-02-18T14:34:33.779Z,18.42
2019-02-18T14:37:36.955Z,18.20
2019-02-18T14:40:40.203Z,18.23
2019-02-18T14:43:43.351Z,18.48
2019-02-18T14:46:46.618Z,18.63
2019-02-18T14:49:49.830Z,18.18
2019-02-18T14:52:52.958Z,17.86
2019-02-18T14:55:56.144Z,17.87
2019-02-18T14:58:59.307Z,17.72
2019-02-18T15:02:02.512Z,17.59
2019-02-18T15:05:05.816Z,17.13
2019-02-18T15:08:08.898Z,16.97
2019-02-18T15:11:12.011Z,16.89
2019-02-18T15:14:15.172Z,16.60
2019-02-18T15:17:18.275Z,16.47
2019-02-18T15:20:21.390Z,16.39
2019-02-18T15:23:24.585Z,16.22
2019-02-18T15:26:27.775Z,16.19
2019-02-18T15:29:30.956Z,16.14
2019-02-18T15:32:36.603Z,16.01
2019-02-18T15:35:39.903Z,15.95
2019-02-18T15:38:43.107Z,15.82
2019-02-18T15:41:46.187Z,15.70
2019-02-18T15:44:49.386Z,15.60
2019-02-18T15:47:52.586Z,15.48
2019-02-18T15:50:55.795Z,15.37
2019-02-18T15:53:58.971Z,15.24
2019-02-18T15:57:02.067Z,15.13
2019-02-18T16:00:07.215Z,15.12
2019-02-18T16:03:10.403Z,15.09
2019-02-18T16:06:13.599Z,15.03
2019-02-18T16:09:16.779Z,14.96
2019-02-18T16:12:19.904Z,14.78
2019-02-18T16:15:23.090Z,14.67
2019-02-18T16:18:26.292Z,14.61
2019-02-18T16:21:29.466Z,14.53
2019-02-18T16:24:32.651Z,14.38
2019-02-18T16:27:35.754Z,14.23
2019-02-18T16:30:38.950Z,14.10
2019-02-18T16:33:42.235Z,13.92
2019-02-18T16:36:45.326Z,13.69
2019-02-18T16:39:48.537Z,13.46
2019-02-18T16:42:59.030Z,13.14
2019-02-18T16:45:54.824Z,12.95
2019-02-18T16:48:57.927Z,12.79
2019-02-18T16:52:01.121Z,12.64
2019-02-18T16:55:04.518Z,12.46
2019-02-18T16:58:07.697Z,12.29
2019-02-18T17:01:10.902Z,12.13
2019-02-18T17:04:13.992Z,12.00
2019-02-18T17:07:17.182Z,11.85
2019-02-18T17:10:20.366Z,11.71
2019-02-18T17:13:23.467Z,11.48
2019-02-18T17:16:26.659Z,11.36
2019-02-18T17:19:29.866Z,11.31
2019-02-18T17:22:33.152Z,11.24
2019-02-18T17:25:36.478Z,11.13
2019-02-18T17:28:39.819Z,10.94
2019-02-18T17:31:42.946Z,10.76
2019-02-18T17:34:46.138Z,10.73
2019-02-18T17:37:49.353Z,10.68
2019-02-18T17:40:52.523Z,10.57
2019-02-18T17:43:55.660Z,10.50
2019-02-18T17:46:58.839Z,10.44
2019-02-18T17:50:02.015Z,10.24
2019-02-18T17:53:05.316Z,10.12
2019-02-18T17:56:08.550Z,10.09
2019-02-18T17:59:11.711Z,10.08
2019-02-18T18:02:14.883Z,10.00
2019-02-18T18:05:17.983Z,9.90
2019-02-18T18:08:21.229Z,9.75
2019-02-18T18:11:24.475Z,9.67
2019-02-18T18:14:27.757Z,9.51
2019-02-18T18:17:30.864Z,9.45
2019-02-18T18:20:34.045Z,9.39
2019-02-18T18:23:37.147Z,9.38
2019-02-18T18:26:40.256Z,9.28
2019-02-18T18:29:43.526Z,9.16
2019-02-18T18:32:46.749Z,9.06
2019-02-18T18:35:49.976Z,9.00
2019-02-18T18:38:53.152Z,9.00
2019-02-18T18:41:56.231Z,8.99
2019-02-18T18:44:59.411Z,8.94
2019-02-18T18:48:02.611Z,8.87
2019-02-18T18:51:05.907Z,8.90
2019-02-18T18:54:09.093Z,8.82
2019-02-18T18:57:12.212Z,8.77
2019-02-18T19:00:17.448Z,8.72
2019-02-18T19:03:20.631Z,8.64
2019-02-18T19:06:23.719Z,8.55
2019-02-18T19:09:26.919Z,8.49
2019-02-18T19:12:30.141Z,8.41
2019-02-18T19:15:33.313Z,8.21
2019-02-18T19:18:36.395Z,8.10
2019-02-18T19:21:39.582Z,8.06
2019-02-18T19:24:42.823Z,8.05
2019-02-18T19:27:45.979Z,8.07
2019-02-18T19:30:49.208Z,8.04
2019-02-18T19:33:52.362Z,8.01
2019-02-18T19:36:55.588Z,7.97
2019-02-18T19:39:58.778Z,7.88
2019-02-18T19:43:01.867Z,7.63
2019-02-18T19:46:05.071Z,7.61
2019-02-18T19:49:08.248Z,7.67
2019-02-18T19:52:11.456Z,7.60
2019-02-18T19:55:14.639Z,7.53
2019-02-18T19:58:17.730Z,7.50
2019-02-18T20:01:20.928Z,7.47
2019-02-18T20:04:24.103Z,7.33
2019-02-18T20:07:27.303Z,7.10
2019-02-18T20:10:30.507Z,7.11
2019-02-18T20:13:33.687Z,7.14
2019-02-18T20:16:36.889Z,7.16
2019-02-18T20:19:40.143Z,7.15
2019-02-18T20:22:43.288Z,7.05
2019-02-18T20:25:46.474Z,7.08
2019-02-18T20:28:49.715Z,6.97
2019-02-18T20:31:52.854Z,6.76
2019-02-18T20:34:56.035Z,6.64
2019-02-18T20:37:59.802Z,6.65
2019-02-18T20:41:02.941Z,6.66
2019-02-18T20:44:07.674Z,6.62
2019-02-18T20:47:10.562Z,6.73
2019-02-18T20:50:13.788Z,6.84
2019-02-18T20:53:17.149Z,6.74
2019-02-18T20:56:20.261Z,6.60
2019-02-18T20:59:23.448Z,6.56
2019-02-18T21:02:26.742Z,6.60
2019-02-18T21:05:29.855Z,6.62
2019-02-18T21:08:33.031Z,6.62
2019-02-18T21:11:36.683Z,6.60
2019-02-18T21:14:39.823Z,6.56
2019-02-18T21:17:42.944Z,6.56
2019-02-18T21:20:46.139Z,6.53
2019-02-18T21:23:49.318Z,6.52
2019-02-18T21:26:52.507Z,6.57
2019-02-18T21:29:55.703Z,6.57
2019-02-18T21:32:58.791Z,6.47
2019-02-18T21:36:01.899Z,6.20
2019-02-18T21:39:06.867Z,6.11
2019-02-18T21:42:10.137Z,6.05
2019-02-18T21:45:13.371Z,5.90
2019-02-18T21:48:16.611Z,5.89
2019-02-18T21:51:19.973Z,5.84
2019-02-18T21:54:23.231Z,5.67
2019-02-18T21:57:26.582Z,5.67
2019-02-18T22:00:29.800Z,5.61
2019-02-18T22:03:33.060Z,5.37
2019-02-18T22:06:36.258Z,5.37
2019-02-18T22:09:39.378Z,5.37
2019-02-18T22:12:42.591Z,5.39
2019-02-18T22:15:45.815Z,5.37
2019-02-18T22:18:49.010Z,5.34
2019-02-18T22:21:52.883Z,5.25
2019-02-18T22:24:55.999Z,5.00
2019-02-18T22:27:59.166Z,4.96
2019-02-18T22:31:02.357Z,4.89
2019-02-18T22:34:05.478Z,4.85
2019-02-18T22:37:08.656Z,4.88
2019-02-18T22:40:11.951Z,4.90
2019-02-18T22:43:15.127Z,4.99
2019-02-18T22:46:18.223Z,4.96
2019-02-18T22:49:21.420Z,4.89
2019-02-18T22:52:24.637Z,4.77
2019-02-18T22:55:27.871Z,4.67
2019-02-18T22:58:31.051Z,4.62
2019-02-18T23:01:34.167Z,4.65
2019-02-18T23:04:37.380Z,4.58
2019-02-18T23:07:40.595Z,4.49
2019-02-18T23:10:43.827Z,4.40
2019-02-18T23:13:47.077Z,4.48
2019-02-18T23:16:50.239Z,4.38
2019-02-18T23:19:54.292Z,4.40
2019-02-18T23:22:57.791Z,4.41
2019-02-18T23:26:00.887Z,4.49
2019-02-18T23:29:04.091Z,4.54
2019-02-18T23:32:07.325Z,4.55
2019-02-18T23:35:10.466Z,4.24
2019-02-18T23:38:13.555Z,4.23
2019-02-18T23:41:16.766Z,4.30
2019-02-18T23:44:20.063Z,4.16
2019-02-18T23:47:23.143Z,4.11
2019-02-18T23:50:26.431Z,4.12
2019-02-18T23:53:29.602Z,4.17
2019-02-18T23:56:32.719Z,4.23
2019-02-18T23:59:35.925Z,4.12
